sensor_id;sensor_type;location;lat;lon;timestamp;P1;P2;P0
60645;PMS5003;46462;32.608;-117.032;2023-04-24T00:01:40;7;7;
60645;PMS5003;46462;32.608;-117.032;2023-04-24T00:04:10;5;5;
60645;PMS5003;46462;32.608;-117.032;2023-04-24T00:06:41;7;7;
60645;PMS5003;46462;32.608;-117.032;2023-04-24T00:09:12;7;7;
60645;PMS5003;46462;32.608;-117.032;2023-04-24T00:11:42;6;6;
60645;PMS5003;46462;32.608;-117.032;2023-04-24T00:14:13;7;7;
60645;PMS5003;46462;32.608;-117.032;2023-04-24T00:16:44;6;6;
60645;PMS5003;46462;32.608;-117.032;2023-04-24T00:19:15;5;5;
60645;PMS5003;46462;32.608;-117.032;2023-04-24T00:21:45;5;5;
60645;PMS5003;46462;32.608;-117.032;2023-04-24T00:24:16;6;6;
60645;PMS5003;46462;32.608;-117.032;2023-04-24T00:26:47;5;5;
60645;PMS5003;46462;32.608;-117.032;2023-04-24T00:29:17;7;7;
60645;PMS5003;46462;32.608;-117.032;2023-04-24T00:31:48;7;7;
60645;PMS5003;46462;32.608;-117.032;2023-04-24T00:34:19;6;6;
60645;PMS5003;46462;32.608;-117.032;2023-04-24T00:36:50;7;7;
60645;PMS5003;46462;32.608;-117.032;2023-04-24T00:39:21;8;8;
60645;PMS5003;46462;32.608;-117.032;2023-04-24T00:41:51;7;6;
60645;PMS5003;46462;32.608;-117.032;2023-04-24T00:44:22;4;4;
60645;PMS5003;46462;32.608;-117.032;2023-04-24T00:46:52;7;7;
60645;PMS5003;46462;32.608;-117.032;2023-04-24T00:49:23;7;7;
60645;PMS5003;46462;32.608;-117.032;2023-04-24T00:51:54;7;7;
60645;PMS5003;46462;32.608;-117.032;2023-04-24T00:54:25;7;7;
60645;PMS5003;46462;32.608;-117.032;2023-04-24T00:56:55;6;6;
60645;PMS5003;46462;32.608;-117.032;2023-04-24T00:59:26;7;6;
60645;PMS5003;46462;32.608;-117.032;2023-04-24T01:01:57;5;5;
60645;PMS5003;46462;32.608;-117.032;2023-04-24T01:04:27;5;5;
60645;PMS5003;46462;32.608;-117.032;2023-04-24T01:06:58;6;6;
60645;PMS5003;46462;32.608;-117.032;2023-04-24T01:09:29;4;4;
60645;PMS5003;46462;32.608;-117.032;2023-04-24T01:12:00;6;6;
60645;PMS5003;46462;32.608;-117.032;2023-04-24T01:14:30;6;5;
60645;PMS5003;46462;32.608;-117.032;2023-04-24T01:17:01;3;3;
60645;PMS5003;46462;32.608;-117.032;2023-04-24T01:19:32;6;6;
60645;PMS5003;46462;32.608;-117.032;2023-04-24T01:22:02;7;6;
60645;PMS5003;46462;32.608;-117.032;2023-04-24T01:24:33;5;4;
60645;PMS5003;46462;32.608;-117.032;2023-04-24T01:27:04;7;7;
60645;PMS5003;46462;32.608;-117.032;2023-04-24T01:29:35;6;6;
60645;PMS5003;46462;32.608;-117.032;2023-04-24T01:32:05;6;5;
60645;PMS5003;46462;32.608;-117.032;2023-04-24T01:34:36;5;5;
60645;PMS5003;46462;32.608;-117.032;2023-04-24T01:37:07;5;5;
60645;PMS5003;46462;32.608;-117.032;2023-04-24T01:39:38;5;5;
60645;PMS5003;46462;32.608;-117.032;2023-04-24T01:42:08;6;6;
60645;PMS5003;46462;32.608;-117.032;2023-04-24T01:44:38;7;7;
60645;PMS5003;46462;32.608;-117.032;2023-04-24T01:47:09;6;5;
60645;PMS5003;46462;32.608;-117.032;2023-04-24T01:49:40;7;7;
60645;PMS5003;46462;32.608;-117.032;2023-04-24T01:52:10;6;6;
60645;PMS5003;46462;32.608;-117.032;2023-04-24T01:54:41;4;4;
60645;PMS5003;46462;32.608;-117.032;2023-04-24T01:57:12;7;6;
60645;PMS5003;46462;32.608;-117.032;2023-04-24T01:59:43;5;5;
60645;PMS5003;46462;32.608;-117.032;2023-04-24T02:02:13;5;5;
60645;PMS5003;46462;32.608;-117.032;2023-04-24T02:04:44;6;5;
60645;PMS5003;46462;32.608;-117.032;2023-04-24T02:07:15;6;6;
60645;PMS5003;46462;32.608;-117.032;2023-04-24T02:09:46;4;4;
60645;PMS5003;46462;32.608;-117.032;2023-04-24T02:12:16;5;5;
60645;PMS5003;46462;32.608;-117.032;2023-04-24T02:14:47;5;5;
60645;PMS5003;46462;32.608;-117.032;2023-04-24T02:17:18;4;4;
60645;PMS5003;46462;32.608;-117.032;2023-04-24T02:19:48;6;5;
60645;PMS5003;46462;32.608;-117.032;2023-04-24T02:22:19;4;4;
60645;PMS5003;46462;32.608;-117.032;2023-04-24T02:24:50;6;6;
60645;PMS5003;46462;32.608;-117.032;2023-04-24T02:27:21;4;4;
60645;PMS5003;46462;32.608;-117.032;2023-04-24T02:29:51;5;5;
60645;PMS5003;46462;32.608;-117.032;2023-04-24T02:32:22;6;5;
60645;PMS5003;46462;32.608;-117.032;2023-04-24T02:34:53;5;5;
60645;PMS5003;46462;32.608;-117.032;2023-04-24T02:37:23;4;4;
60645;PMS5003;46462;32.608;-117.032;2023-04-24T02:39:54;5;5;
60645;PMS5003;46462;32.608;-117.032;2023-04-24T02:42:25;4;4;
60645;PMS5003;46462;32.608;-117.032;2023-04-24T02:44:55;4;4;
60645;PMS5003;46462;32.608;-117.032;2023-04-24T02:47:26;6;6;
60645;PMS5003;46462;32.608;-117.032;2023-04-24T02:49:57;7;7;
60645;PMS5003;46462;32.608;-117.032;2023-04-24T02:52:28;4;4;
60645;PMS5003;46462;32.608;-117.032;2023-04-24T02:54:58;4;4;
60645;PMS5003;46462;32.608;-117.032;2023-04-24T02:57:29;5;5;
60645;PMS5003;46462;32.608;-117.032;2023-04-24T03:00:00;5;5;
60645;PMS5003;46462;32.608;-117.032;2023-04-24T03:02:30;8;8;
60645;PMS5003;46462;32.608;-117.032;2023-04-24T03:05:01;6;6;
60645;PMS5003;46462;32.608;-117.032;2023-04-24T03:07:32;6;5;
60645;PMS5003;46462;32.608;-117.032;2023-04-24T03:10:07;5;5;
60645;PMS5003;46462;32.608;-117.032;2023-04-24T03:12:36;5;5;
60645;PMS5003;46462;32.608;-117.032;2023-04-24T03:15:06;4;4;
60645;PMS5003;46462;32.608;-117.032;2023-04-24T03:17:36;6;6;
60645;PMS5003;46462;32.608;-117.032;2023-04-24T03:20:07;5;5;
60645;PMS5003;46462;32.608;-117.032;2023-04-24T03:22:37;6;5;
60645;PMS5003;46462;32.608;-117.032;2023-04-24T03:25:08;6;6;
60645;PMS5003;46462;32.608;-117.032;2023-04-24T03:27:39;5;4;
60645;PMS5003;46462;32.608;-117.032;2023-04-24T03:30:09;7;7;
60645;PMS5003;46462;32.608;-117.032;2023-04-24T03:32:40;6;6;
60645;PMS5003;46462;32.608;-117.032;2023-04-24T03:35:11;6;6;
60645;PMS5003;46462;32.608;-117.032;2023-04-24T03:37:41;4;4;
60645;PMS5003;46462;32.608;-117.032;2023-04-24T03:40:12;8;7;
60645;PMS5003;46462;32.608;-117.032;2023-04-24T03:42:43;6;6;
60645;PMS5003;46462;32.608;-117.032;2023-04-24T03:45:13;5;5;
60645;PMS5003;46462;32.608;-117.032;2023-04-24T03:47:44;5;5;
60645;PMS5003;46462;32.608;-117.032;2023-04-24T03:50:15;5;5;
60645;PMS5003;46462;32.608;-117.032;2023-04-24T03:52:46;4;4;
60645;PMS5003;46462;32.608;-117.032;2023-04-24T03:55:16;6;5;
60645;PMS5003;46462;32.608;-117.032;2023-04-24T03:57:47;5;5;
60645;PMS5003;46462;32.608;-117.032;2023-04-24T04:00:17;5;4;
60645;PMS5003;46462;32.608;-117.032;2023-04-24T04:02:48;6;6;
60645;PMS5003;46462;32.608;-117.032;2023-04-24T04:05:19;6;6;
60645;PMS5003;46462;32.608;-117.032;2023-04-24T04:07:50;6;5;
60645;PMS5003;46462;32.608;-117.032;2023-04-24T04:10:21;6;6;
60645;PMS5003;46462;32.608;-117.032;2023-04-24T04:12:51;7;5;
60645;PMS5003;46462;32.608;-117.032;2023-04-24T04:15:22;5;5;
60645;PMS5003;46462;32.608;-117.032;2023-04-24T04:17:52;6;6;
60645;PMS5003;46462;32.608;-117.032;2023-04-24T04:20:23;7;6;
60645;PMS5003;46462;32.608;-117.032;2023-04-24T04:22:54;6;5;
60645;PMS5003;46462;32.608;-117.032;2023-04-24T04:25:24;8;8;
60645;PMS5003;46462;32.608;-117.032;2023-04-24T04:27:55;6;5;
60645;PMS5003;46462;32.608;-117.032;2023-04-24T04:30:26;6;6;
60645;PMS5003;46462;32.608;-117.032;2023-04-24T04:32:56;6;6;
60645;PMS5003;46462;32.608;-117.032;2023-04-24T04:35:27;5;5;
60645;PMS5003;46462;32.608;-117.032;2023-04-24T04:37:58;5;5;
60645;PMS5003;46462;32.608;-117.032;2023-04-24T04:40:28;5;5;
60645;PMS5003;46462;32.608;-117.032;2023-04-24T04:42:59;5;5;
60645;PMS5003;46462;32.608;-117.032;2023-04-24T04:45:30;5;5;
60645;PMS5003;46462;32.608;-117.032;2023-04-24T04:48:00;6;6;
60645;PMS5003;46462;32.608;-117.032;2023-04-24T04:50:31;4;4;
60645;PMS5003;46462;32.608;-117.032;2023-04-24T04:53:02;5;5;
60645;PMS5003;46462;32.608;-117.032;2023-04-24T04:55:33;7;6;
60645;PMS5003;46462;32.608;-117.032;2023-04-24T04:58:03;7;7;
60645;PMS5003;46462;32.608;-117.032;2023-04-24T05:00:34;6;6;
60645;PMS5003;46462;32.608;-117.032;2023-04-24T05:03:05;8;7;
60645;PMS5003;46462;32.608;-117.032;2023-04-24T05:05:35;5;5;
60645;PMS5003;46462;32.608;-117.032;2023-04-24T05:08:06;5;5;
60645;PMS5003;46462;32.608;-117.032;2023-04-24T05:10:37;5;5;
60645;PMS5003;46462;32.608;-117.032;2023-04-24T05:13:08;5;5;
60645;PMS5003;46462;32.608;-117.032;2023-04-24T05:15:38;7;6;
60645;PMS5003;46462;32.608;-117.032;2023-04-24T05:18:09;4;4;
60645;PMS5003;46462;32.608;-117.032;2023-04-24T05:20:40;7;6;
60645;PMS5003;46462;32.608;-117.032;2023-04-24T05:23:10;6;6;
60645;PMS5003;46462;32.608;-117.032;2023-04-24T05:25:41;6;6;
60645;PMS5003;46462;32.608;-117.032;2023-04-24T05:28:12;5;5;
60645;PMS5003;46462;32.608;-117.032;2023-04-24T05:30:43;5;5;
60645;PMS5003;46462;32.608;-117.032;2023-04-24T05:33:13;6;6;
60645;PMS5003;46462;32.608;-117.032;2023-04-24T05:35:44;6;6;
60645;PMS5003;46462;32.608;-117.032;2023-04-24T05:38:15;5;5;
60645;PMS5003;46462;32.608;-117.032;2023-04-24T05:40:46;5;5;
60645;PMS5003;46462;32.608;-117.032;2023-04-24T05:43:16;6;6;
60645;PMS5003;46462;32.608;-117.032;2023-04-24T05:45:47;5;5;
60645;PMS5003;46462;32.608;-117.032;2023-04-24T05:48:18;5;5;
60645;PMS5003;46462;32.608;-117.032;2023-04-24T05:50:49;5;5;
60645;PMS5003;46462;32.608;-117.032;2023-04-24T05:53:19;5;5;
60645;PMS5003;46462;32.608;-117.032;2023-04-24T05:55:50;7;7;
60645;PMS5003;46462;32.608;-117.032;2023-04-24T05:58:21;6;6;
60645;PMS5003;46462;32.608;-117.032;2023-04-24T06:00:52;6;6;
60645;PMS5003;46462;32.608;-117.032;2023-04-24T06:03:22;5;5;
60645;PMS5003;46462;32.608;-117.032;2023-04-24T06:05:53;7;6;
60645;PMS5003;46462;32.608;-117.032;2023-04-24T06:08:24;6;6;
60645;PMS5003;46462;32.608;-117.032;2023-04-24T06:10:54;5;5;
60645;PMS5003;46462;32.608;-117.032;2023-04-24T06:13:25;5;4;
60645;PMS5003;46462;32.608;-117.032;2023-04-24T06:15:56;6;6;
60645;PMS5003;46462;32.608;-117.032;2023-04-24T06:18:26;5;5;
60645;PMS5003;46462;32.608;-117.032;2023-04-24T06:20:57;7;7;
60645;PMS5003;46462;32.608;-117.032;2023-04-24T06:23:28;4;4;
60645;PMS5003;46462;32.608;-117.032;2023-04-24T06:25:59;7;6;
60645;PMS5003;46462;32.608;-117.032;2023-04-24T06:28:30;5;5;
60645;PMS5003;46462;32.608;-117.032;2023-04-24T06:31:00;5;5;
60645;PMS5003;46462;32.608;-117.032;2023-04-24T06:33:31;5;5;
60645;PMS5003;46462;32.608;-117.032;2023-04-24T06:36:02;5;5;
60645;PMS5003;46462;32.608;-117.032;2023-04-24T06:38:32;5;4;
60645;PMS5003;46462;32.608;-117.032;2023-04-24T06:41:03;5;5;
60645;PMS5003;46462;32.608;-117.032;2023-04-24T06:43:34;7;6;
60645;PMS5003;46462;32.608;-117.032;2023-04-24T06:46:05;6;6;
60645;PMS5003;46462;32.608;-117.032;2023-04-24T06:48:35;6;5;
60645;PMS5003;46462;32.608;-117.032;2023-04-24T06:51:06;6;6;
60645;PMS5003;46462;32.608;-117.032;2023-04-24T06:53:37;6;6;
60645;PMS5003;46462;32.608;-117.032;2023-04-24T06:56:07;6;6;
60645;PMS5003;46462;32.608;-117.032;2023-04-24T06:58:38;6;6;
60645;PMS5003;46462;32.608;-117.032;2023-04-24T07:01:09;6;6;
60645;PMS5003;46462;32.608;-117.032;2023-04-24T07:03:39;7;7;
60645;PMS5003;46462;32.608;-117.032;2023-04-24T07:06:10;6;6;
60645;PMS5003;46462;32.608;-117.032;2023-04-24T07:08:41;6;6;
60645;PMS5003;46462;32.608;-117.032;2023-04-24T07:11:12;6;6;
60645;PMS5003;46462;32.608;-117.032;2023-04-24T07:13:42;6;5;
60645;PMS5003;46462;32.608;-117.032;2023-04-24T07:16:13;6;6;
60645;PMS5003;46462;32.608;-117.032;2023-04-24T07:18:44;6;6;
60645;PMS5003;46462;32.608;-117.032;2023-04-24T07:21:14;5;5;
60645;PMS5003;46462;32.608;-117.032;2023-04-24T07:23:45;7;6;
60645;PMS5003;46462;32.608;-117.032;2023-04-24T07:26:16;5;5;
60645;PMS5003;46462;32.608;-117.032;2023-04-24T07:28:47;5;5;
60645;PMS5003;46462;32.608;-117.032;2023-04-24T07:31:17;5;5;
60645;PMS5003;46462;32.608;-117.032;2023-04-24T07:33:48;5;4;
60645;PMS5003;46462;32.608;-117.032;2023-04-24T07:36:19;5;5;
60645;PMS5003;46462;32.608;-117.032;2023-04-24T07:38:50;4;4;
60645;PMS5003;46462;32.608;-117.032;2023-04-24T07:41:20;6;6;
60645;PMS5003;46462;32.608;-117.032;2023-04-24T07:43:51;6;6;
60645;PMS5003;46462;32.608;-117.032;2023-04-24T07:46:22;5;5;
60645;PMS5003;46462;32.608;-117.032;2023-04-24T07:48:53;6;6;
60645;PMS5003;46462;32.608;-117.032;2023-04-24T07:51:23;4;4;
60645;PMS5003;46462;32.608;-117.032;2023-04-24T07:53:54;5;5;
60645;PMS5003;46462;32.608;-117.032;2023-04-24T07:56:25;5;4;
60645;PMS5003;46462;32.608;-117.032;2023-04-24T07:58:56;4;4;
60645;PMS5003;46462;32.608;-117.032;2023-04-24T08:01:26;6;5;
60645;PMS5003;46462;32.608;-117.032;2023-04-24T08:03:57;5;5;
60645;PMS5003;46462;32.608;-117.032;2023-04-24T08:06:28;6;6;
60645;PMS5003;46462;32.608;-117.032;2023-04-24T08:08:59;7;7;
60645;PMS5003;46462;32.608;-117.032;2023-04-24T08:11:30;5;4;
60645;PMS5003;46462;32.608;-117.032;2023-04-24T08:14:00;6;5;
60645;PMS5003;46462;32.608;-117.032;2023-04-24T08:16:32;6;6;
60645;PMS5003;46462;32.608;-117.032;2023-04-24T08:19:02;7;6;
60645;PMS5003;46462;32.608;-117.032;2023-04-24T08:21:32;5;5;
60645;PMS5003;46462;32.608;-117.032;2023-04-24T08:24:03;6;6;
60645;PMS5003;46462;32.608;-117.032;2023-04-24T08:26:34;4;4;
60645;PMS5003;46462;32.608;-117.032;2023-04-24T08:29:05;5;5;
60645;PMS5003;46462;32.608;-117.032;2023-04-24T08:31:35;5;5;
60645;PMS5003;46462;32.608;-117.032;2023-04-24T08:34:06;5;5;
60645;PMS5003;46462;32.608;-117.032;2023-04-24T08:36:37;5;5;
60645;PMS5003;46462;32.608;-117.032;2023-04-24T08:39:07;6;6;
60645;PMS5003;46462;32.608;-117.032;2023-04-24T08:41:38;5;5;
60645;PMS5003;46462;32.608;-117.032;2023-04-24T08:44:09;5;5;
60645;PMS5003;46462;32.608;-117.032;2023-04-24T08:46:40;5;5;
60645;PMS5003;46462;32.608;-117.032;2023-04-24T08:49:11;6;5;
60645;PMS5003;46462;32.608;-117.032;2023-04-24T08:51:41;4;4;
60645;PMS5003;46462;32.608;-117.032;2023-04-24T08:54:12;6;6;
60645;PMS5003;46462;32.608;-117.032;2023-04-24T08:56:43;5;5;
60645;PMS5003;46462;32.608;-117.032;2023-04-24T08:59:14;6;5;
60645;PMS5003;46462;32.608;-117.032;2023-04-24T09:01:44;7;6;
60645;PMS5003;46462;32.608;-117.032;2023-04-24T09:04:15;7;5;
60645;PMS5003;46462;32.608;-117.032;2023-04-24T09:06:46;5;5;
60645;PMS5003;46462;32.608;-117.032;2023-04-24T09:09:16;7;7;
60645;PMS5003;46462;32.608;-117.032;2023-04-24T09:11:48;4;4;
60645;PMS5003;46462;32.608;-117.032;2023-04-24T09:14:18;5;5;
60645;PMS5003;46462;32.608;-117.032;2023-04-24T09:16:49;7;7;
60645;PMS5003;46462;32.608;-117.032;2023-04-24T09:19:19;7;7;
60645;PMS5003;46462;32.608;-117.032;2023-04-24T09:21:50;5;5;
60645;PMS5003;46462;32.608;-117.032;2023-04-24T09:24:21;5;5;
60645;PMS5003;46462;32.608;-117.032;2023-04-24T09:26:56;6;6;
60645;PMS5003;46462;32.608;-117.032;2023-04-24T09:29:23;6;6;
60645;PMS5003;46462;32.608;-117.032;2023-04-24T09:31:53;5;5;
60645;PMS5003;46462;32.608;-117.032;2023-04-24T09:34:25;5;5;
60645;PMS5003;46462;32.608;-117.032;2023-04-24T09:36:55;6;6;
60645;PMS5003;46462;32.608;-117.032;2023-04-24T09:39:25;6;6;
60645;PMS5003;46462;32.608;-117.032;2023-04-24T09:41:56;5;5;
60645;PMS5003;46462;32.608;-117.032;2023-04-24T09:44:27;5;5;
60645;PMS5003;46462;32.608;-117.032;2023-04-24T09:46:58;7;6;
60645;PMS5003;46462;32.608;-117.032;2023-04-24T09:49:29;7;6;
60645;PMS5003;46462;32.608;-117.032;2023-04-24T09:52:02;6;6;
60645;PMS5003;46462;32.608;-117.032;2023-04-24T09:54:30;9;9;
60645;PMS5003;46462;32.608;-117.032;2023-04-24T09:57:01;8;7;
60645;PMS5003;46462;32.608;-117.032;2023-04-24T09:59:31;5;5;
60645;PMS5003;46462;32.608;-117.032;2023-04-24T10:02:02;5;5;
60645;PMS5003;46462;32.608;-117.032;2023-04-24T10:04:33;5;5;
60645;PMS5003;46462;32.608;-117.032;2023-04-24T10:07:04;7;7;
60645;PMS5003;46462;32.608;-117.032;2023-04-24T10:09:34;6;5;
60645;PMS5003;46462;32.608;-117.032;2023-04-24T10:12:05;7;7;
60645;PMS5003;46462;32.608;-117.032;2023-04-24T10:14:36;5;5;
60645;PMS5003;46462;32.608;-117.032;2023-04-24T10:17:07;4;4;
60645;PMS5003;46462;32.608;-117.032;2023-04-24T10:19:37;7;7;
60645;PMS5003;46462;32.608;-117.032;2023-04-24T10:22:08;5;5;
60645;PMS5003;46462;32.608;-117.032;2023-04-24T10:24:39;4;4;
60645;PMS5003;46462;32.608;-117.032;2023-04-24T10:27:09;5;5;
60645;PMS5003;46462;32.608;-117.032;2023-04-24T10:29:40;7;6;
60645;PMS5003;46462;32.608;-117.032;2023-04-24T10:32:11;5;5;
60645;PMS5003;46462;32.608;-117.032;2023-04-24T10:34:42;6;6;
60645;PMS5003;46462;32.608;-117.032;2023-04-24T10:37:12;6;6;
60645;PMS5003;46462;32.608;-117.032;2023-04-24T10:39:43;6;6;
60645;PMS5003;46462;32.608;-117.032;2023-04-24T10:42:14;5;5;
60645;PMS5003;46462;32.608;-117.032;2023-04-24T10:44:45;5;5;
60645;PMS5003;46462;32.608;-117.032;2023-04-24T10:47:16;6;6;
60645;PMS5003;46462;32.608;-117.032;2023-04-24T10:49:46;6;6;
60645;PMS5003;46462;32.608;-117.032;2023-04-24T10:52:17;7;6;
60645;PMS5003;46462;32.608;-117.032;2023-04-24T10:54:48;6;6;
60645;PMS5003;46462;32.608;-117.032;2023-04-24T10:59:50;7;6;
60645;PMS5003;46462;32.608;-117.032;2023-04-24T11:02:23;7;7;
60645;PMS5003;46462;32.608;-117.032;2023-04-24T11:04:51;6;6;
60645;PMS5003;46462;32.608;-117.032;2023-04-24T11:07:22;8;8;
60645;PMS5003;46462;32.608;-117.032;2023-04-24T11:12:23;8;8;
60645;PMS5003;46462;32.608;-117.032;2023-04-24T11:14:59;5;5;
60645;PMS5003;46462;32.608;-117.032;2023-04-24T11:20:00;7;7;
60645;PMS5003;46462;32.608;-117.032;2023-04-24T11:22:26;7;7;
60645;PMS5003;46462;32.608;-117.032;2023-04-24T11:24:57;7;7;
60645;PMS5003;46462;32.608;-117.032;2023-04-24T11:27:29;8;7;
60645;PMS5003;46462;32.608;-117.032;2023-04-24T11:29:59;8;8;
60645;PMS5003;46462;32.608;-117.032;2023-04-24T11:32:30;6;6;
60645;PMS5003;46462;32.608;-117.032;2023-04-24T11:35:00;5;5;
60645;PMS5003;46462;32.608;-117.032;2023-04-24T11:37:33;7;7;
60645;PMS5003;46462;32.608;-117.032;2023-04-24T11:40:06;9;8;
60645;PMS5003;46462;32.608;-117.032;2023-04-24T11:42:36;9;9;
60645;PMS5003;46462;32.608;-117.032;2023-04-24T11:45:08;7;7;
60645;PMS5003;46462;32.608;-117.032;2023-04-24T11:47:37;8;8;
60645;PMS5003;46462;32.608;-117.032;2023-04-24T11:50:10;7;7;
60645;PMS5003;46462;32.608;-117.032;2023-04-24T11:52:39;8;8;
60645;PMS5003;46462;32.608;-117.032;2023-04-24T11:57:42;9;9;
60645;PMS5003;46462;32.608;-117.032;2023-04-24T12:00:15;8;8;
60645;PMS5003;46462;32.608;-117.032;2023-04-24T12:02:42;9;9;
60645;PMS5003;46462;32.608;-117.032;2023-04-24T12:07:43;6;6;
60645;PMS5003;46462;32.608;-117.032;2023-04-24T12:10:14;8;8;
60645;PMS5003;46462;32.608;-117.032;2023-04-24T12:12:45;9;9;
60645;PMS5003;46462;32.608;-117.032;2023-04-24T12:15:16;8;8;
60645;PMS5003;46462;32.608;-117.032;2023-04-24T12:17:46;8;7;
60645;PMS5003;46462;32.608;-117.032;2023-04-24T12:20:17;9;9;
60645;PMS5003;46462;32.608;-117.032;2023-04-24T12:22:49;8;8;
60645;PMS5003;46462;32.608;-117.032;2023-04-24T12:25:19;7;7;
60645;PMS5003;46462;32.608;-117.032;2023-04-24T12:27:53;8;8;
60645;PMS5003;46462;32.608;-117.032;2023-04-24T12:30:21;7;7;
60645;PMS5003;46462;32.608;-117.032;2023-04-24T12:32:51;7;6;
60645;PMS5003;46462;32.608;-117.032;2023-04-24T12:35:22;7;7;
60645;PMS5003;46462;32.608;-117.032;2023-04-24T12:37:52;8;7;
60645;PMS5003;46462;32.608;-117.032;2023-04-24T12:40:25;6;6;
60645;PMS5003;46462;32.608;-117.032;2023-04-24T12:42:54;10;9;
60645;PMS5003;46462;32.608;-117.032;2023-04-24T12:45:25;9;9;
60645;PMS5003;46462;32.608;-117.032;2023-04-24T12:47:55;7;7;
60645;PMS5003;46462;32.608;-117.032;2023-04-24T12:50:26;7;6;
60645;PMS5003;46462;32.608;-117.032;2023-04-24T12:52:57;10;8;
60645;PMS5003;46462;32.608;-117.032;2023-04-24T12:55:28;8;8;
60645;PMS5003;46462;32.608;-117.032;2023-04-24T12:57:59;9;8;
60645;PMS5003;46462;32.608;-117.032;2023-04-24T13:00:29;7;7;
60645;PMS5003;46462;32.608;-117.032;2023-04-24T13:03:00;8;8;
60645;PMS5003;46462;32.608;-117.032;2023-04-24T13:05:31;11;11;
60645;PMS5003;46462;32.608;-117.032;2023-04-24T13:08:02;9;9;
60645;PMS5003;46462;32.608;-117.032;2023-04-24T13:10:32;8;8;
60645;PMS5003;46462;32.608;-117.032;2023-04-24T13:13:03;9;9;
60645;PMS5003;46462;32.608;-117.032;2023-04-24T13:15:34;8;8;
60645;PMS5003;46462;32.608;-117.032;2023-04-24T13:18:05;9;8;
60645;PMS5003;46462;32.608;-117.032;2023-04-24T13:20:35;8;8;
60645;PMS5003;46462;32.608;-117.032;2023-04-24T13:23:06;10;10;
60645;PMS5003;46462;32.608;-117.032;2023-04-24T13:25:37;9;8;
60645;PMS5003;46462;32.608;-117.032;2023-04-24T13:28:08;8;8;
60645;PMS5003;46462;32.608;-117.032;2023-04-24T13:30:39;12;11;
60645;PMS5003;46462;32.608;-117.032;2023-04-24T13:33:09;9;8;
60645;PMS5003;46462;32.608;-117.032;2023-04-24T13:35:40;8;8;
60645;PMS5003;46462;32.608;-117.032;2023-04-24T13:38:11;9;9;
60645;PMS5003;46462;32.608;-117.032;2023-04-24T13:40:42;8;8;
60645;PMS5003;46462;32.608;-117.032;2023-04-24T13:43:13;7;7;
60645;PMS5003;46462;32.608;-117.032;2023-04-24T13:45:43;7;7;
60645;PMS5003;46462;32.608;-117.032;2023-04-24T13:48:14;8;8;
60645;PMS5003;46462;32.608;-117.032;2023-04-24T13:50:45;7;7;
60645;PMS5003;46462;32.608;-117.032;2023-04-24T13:53:15;8;8;
60645;PMS5003;46462;32.608;-117.032;2023-04-24T13:55:46;7;7;
60645;PMS5003;46462;32.608;-117.032;2023-04-24T13:58:17;8;7;
60645;PMS5003;46462;32.608;-117.032;2023-04-24T14:00:48;10;10;
60645;PMS5003;46462;32.608;-117.032;2023-04-24T14:03:18;13;12;
60645;PMS5003;46462;32.608;-117.032;2023-04-24T14:05:49;16;15;
60645;PMS5003;46462;32.608;-117.032;2023-04-24T14:08:20;17;17;
60645;PMS5003;46462;32.608;-117.032;2023-04-24T14:10:50;20;20;
60645;PMS5003;46462;32.608;-117.032;2023-04-24T14:13:21;20;19;
60645;PMS5003;46462;32.608;-117.032;2023-04-24T14:15:51;22;20;
60645;PMS5003;46462;32.608;-117.032;2023-04-24T14:18:22;19;19;
60645;PMS5003;46462;32.608;-117.032;2023-04-24T14:20:53;25;24;
60645;PMS5003;46462;32.608;-117.032;2023-04-24T14:23:23;29;26;
60645;PMS5003;46462;32.608;-117.032;2023-04-24T14:25:53;25;24;
60645;PMS5003;46462;32.608;-117.032;2023-04-24T14:28:24;24;21;
60645;PMS5003;46462;32.608;-117.032;2023-04-24T14:30:54;20;20;
60645;PMS5003;46462;32.608;-117.032;2023-04-24T14:33:25;24;24;
60645;PMS5003;46462;32.608;-117.032;2023-04-24T14:35:56;25;24;
60645;PMS5003;46462;32.608;-117.032;2023-04-24T14:38:27;21;20;
60645;PMS5003;46462;32.608;-117.032;2023-04-24T14:40:57;27;25;
60645;PMS5003;46462;32.608;-117.032;2023-04-24T14:43:27;25;24;
60645;PMS5003;46462;32.608;-117.032;2023-04-24T14:45:57;22;21;
60645;PMS5003;46462;32.608;-117.032;2023-04-24T14:48:28;26;24;
60645;PMS5003;46462;32.608;-117.032;2023-04-24T14:50:58;25;25;
60645;PMS5003;46462;32.608;-117.032;2023-04-24T14:53:29;26;25;
60645;PMS5003;46462;32.608;-117.032;2023-04-24T14:55:59;28;24;
60645;PMS5003;46462;32.608;-117.032;2023-04-24T14:58:30;25;22;
60645;PMS5003;46462;32.608;-117.032;2023-04-24T15:01:01;27;26;
60645;PMS5003;46462;32.608;-117.032;2023-04-24T15:03:32;24;22;
60645;PMS5003;46462;32.608;-117.032;2023-04-24T15:06:02;27;24;
60645;PMS5003;46462;32.608;-117.032;2023-04-24T15:08:33;27;27;
60645;PMS5003;46462;32.608;-117.032;2023-04-24T15:11:03;26;26;
60645;PMS5003;46462;32.608;-117.032;2023-04-24T15:13:34;28;26;
60645;PMS5003;46462;32.608;-117.032;2023-04-24T15:16:05;24;23;
60645;PMS5003;46462;32.608;-117.032;2023-04-24T15:18:35;28;26;
60645;PMS5003;46462;32.608;-117.032;2023-04-24T15:21:05;29;26;
60645;PMS5003;46462;32.608;-117.032;2023-04-24T15:23:36;24;23;
60645;PMS5003;46462;32.608;-117.032;2023-04-24T15:26:06;27;26;
60645;PMS5003;46462;32.608;-117.032;2023-04-24T15:28:37;27;27;
60645;PMS5003;46462;32.608;-117.032;2023-04-24T15:31:07;29;28;
60645;PMS5003;46462;32.608;-117.032;2023-04-24T15:33:37;31;26;
60645;PMS5003;46462;32.608;-117.032;2023-04-24T15:36:08;27;26;
60645;PMS5003;46462;32.608;-117.032;2023-04-24T15:38:38;28;28;
60645;PMS5003;46462;32.608;-117.032;2023-04-24T15:41:09;27;26;
60645;PMS5003;46462;32.608;-117.032;2023-04-24T15:43:39;31;28;
60645;PMS5003;46462;32.608;-117.032;2023-04-24T15:46:09;29;28;
60645;PMS5003;46462;32.608;-117.032;2023-04-24T15:48:40;27;25;
60645;PMS5003;46462;32.608;-117.032;2023-04-24T15:51:10;27;25;
60645;PMS5003;46462;32.608;-117.032;2023-04-24T15:53:41;27;25;
60645;PMS5003;46462;32.608;-117.032;2023-04-24T15:56:12;32;29;
60645;PMS5003;46462;32.608;-117.032;2023-04-24T15:58:42;24;24;
60645;PMS5003;46462;32.608;-117.032;2023-04-24T16:01:13;26;26;
60645;PMS5003;46462;32.608;-117.032;2023-04-24T16:03:43;26;26;
60645;PMS5003;46462;32.608;-117.032;2023-04-24T16:06:14;26;25;
60645;PMS5003;46462;32.608;-117.032;2023-04-24T16:08:44;25;24;
60645;PMS5003;46462;32.608;-117.032;2023-04-24T16:11:14;23;21;
60645;PMS5003;46462;32.608;-117.032;2023-04-24T16:13:45;21;20;
60645;PMS5003;46462;32.608;-117.032;2023-04-24T16:16:15;23;23;
60645;PMS5003;46462;32.608;-117.032;2023-04-24T16:18:46;24;22;
60645;PMS5003;46462;32.608;-117.032;2023-04-24T16:21:17;25;25;
60645;PMS5003;46462;32.608;-117.032;2023-04-24T16:23:47;22;22;
60645;PMS5003;46462;32.608;-117.032;2023-04-24T16:26:17;25;24;
60645;PMS5003;46462;32.608;-117.032;2023-04-24T16:28:48;29;28;
60645;PMS5003;46462;32.608;-117.032;2023-04-24T16:31:19;30;28;